Terminal Aerodrome Forecast
Issued by NWS Boston, MA

Home | Current Version | Previous Version | Text Only | Print | Product List | Glossary On
Versions: 1 2 3 4 5 6 7 8 9 10 11 12 13 14 15 16 17 18 19 20 21 22 23 24
000
FTUS41 KBOX 132333
TAFORH
TAF
KORH 132333Z 1400/1424 21011KT P6SM SCT030 BKN120
     FM140300 22010KT P6SM -SHRA OVC040
     FM140500 23010KT P6SM OVC030
     FM140900 23008KT P6SM BKN010
     FM141200 24006KT P6SM BKN020
     FM141500 23007KT P6SM BKN070
     FM142200 22008KT 6SM +SHRA OVC040=

USA.gov is the U.S. government's official web portal to all federal, state and local government web resources and services.